• Join FlightAware (Why Join?)
  • Login
  • US Flag 
06:48PM EDT


 

Airport Tracker/Info


-or-


 

Live Flight TrackerFlight Track Log ✈ N860BA ✈ 16-Oct-2013 ✈ KBED - KFLL

Flight Track Log - Related Links

Times and Time Zones

All times are in EDT time to prevent confusion due to time zone crossing. See the N860BA flight status page for this flight to view local times or setup timezone preferences in your user account.

Time Position Orientation Groundspeed Altitude Reporting Facility
EDT Latitude Longitude Course Direction KTS MPH feet Rate Location/Type
11:56AM 42.4667 -71.3333 212° Southwest 175 201 1,000  Level KA90
11:58AM 42.3522 -71.4289 212° Southwest 251 289 5,600 2,280 Climbing Boston Center
11:59AM 42.3153 -71.4911 231° Southwest 239 275 8,400 3,060 Climbing Boston Center
12:00PM 42.2722 -71.5844 238° Southwest 265 305 11,800 3,180 Climbing Boston Center
12:01PM 42.2100 -71.6383 213° Southwest 265 305 14,800 2,940 Climbing Boston Center
12:02PM 42.1436 -71.6953 212° Southwest 277 319 17,600 2,400 Climbing Boston Center
12:03PM 42.0836 -71.7547 216° Southwest 287 330 19,600 2,100 Climbing Boston Center
12:04PM 42.0172 -71.8169 215° Southwest 293 337 21,900 1,980 Climbing Boston Center
12:05PM 41.9467 -71.8792 213° Southwest 298 343 23,700 1,800 Climbing Boston Center
12:06PM 41.8700 -71.9522 215° Southwest 310 357 25,500 1,620 Climbing Boston Center
12:07PM 41.7972 -72.0197 215° Southwest 316 364 26,900 1,440 Climbing Boston Center
12:08PM 41.7206 -72.0953 216° Southwest 324 373 28,500 1,500 Climbing Boston Center
12:09PM 41.6456 -72.1706 217° Southwest 340 391 30,000 1,320 Climbing Boston Center
12:10PM 41.5667 -72.2458 216° Southwest 340 391 31,200 1,020 Climbing Boston Center
12:11PM 41.4958 -72.3097 214° Southwest 340 391 32,100 900 Climbing Boston Center
12:12PM 41.4167 -72.3903 217° Southwest 345 397 33,100 1,200 Climbing Boston Center
12:13PM 41.3356 -72.4706 217° Southwest 358 412 34,600 1,500 Climbing Boston Center
12:14PM 41.2436 -72.5614 217° Southwest 371 427 36,200 1,020 Climbing Boston Center
12:15PM 41.1622 -72.6414 217° Southwest 371 427 36,700 420 Climbing Boston Center
12:16PM 41.0789 -72.7236 217° Southwest 371 427 37,100 360 Climbing Boston Center
12:17PM 40.9869 -72.8058 214° Southwest 388 447 37,500 360 Climbing Boston Center
12:18PM 40.8947 -72.8958 216° Southwest 402 463 37,900 240 Climbing Boston Center
12:19PM 40.8006 -72.9856 216° Southwest 414 476 38,000 180 Climbing Boston Center
12:20PM 40.7044 -73.0725 214° Southwest 425 489 38,300 300 Climbing Boston Center
12:21PM 40.6039 -73.1644 215° Southwest 432 497 38,700 360 Climbing Boston Center
12:22PM 40.5072 -73.2589 217° Southwest 437 503 39,100 300 Climbing Boston Center
12:23PM 40.4064 -73.3531 215° Southwest 437 503 39,400 240 Climbing Boston Center
12:25PM 40.2086 -73.5461 217° Southwest 453 521 40,000 180 Climbing Washington Center
12:26PM 40.1078 -73.6303 213° Southwest 441 507 40,000  Level Washington Center
12:27PM 40.0072 -73.7225 215° Southwest 446 513 40,000  Level Washington Center
12:28PM 39.9067 -73.8172 216° Southwest 453 521 40,000  Level Washington Center
12:30PM 39.8078 -73.9089 215° Southwest 453 521 40,000  Level Washington Center
12:30PM 39.7072 -74.0028 216° Southwest 453 521 40,000  Level Washington Center
12:31PM 39.6061 -74.0914 214° Southwest 453 521 40,000  Level Washington Center
12:32PM 39.5072 -74.1822 215° Southwest 448 516 40,000  Level Washington Center
12:33PM 39.4061 -74.2728 215° Southwest 448 516 40,000  Level Washington Center
12:34PM 39.3072 -74.3658 216° Southwest 448 516 40,000  Level Washington Center
12:35PM 39.2058 -74.4533 214° Southwest 448 516 40,000  Level Washington Center
12:36PM 39.1044 -74.5458 215° Southwest 448 516 40,000  Level Washington Center
12:37PM 39.0033 -74.6353 215° Southwest 448 516 40,000  Level Washington Center
12:38PM 38.9039 -74.7247 215° Southwest 448 516 40,000  Level Washington Center
12:39PM 38.8022 -74.8164 215° Southwest 448 516 40,000  Level Washington Center
12:40PM 38.7028 -74.9053 215° Southwest 448 516 40,000  Level Washington Center
12:41PM 38.6031 -74.9886 213° Southwest 443 510 40,000  Level Washington Center
12:42PM 38.5014 -75.0744 213° Southwest 443 510 40,000  Level Washington Center
12:43PM 38.3997 -75.1653 215° Southwest 448 516 40,000  Level Washington Center
12:44PM 38.2936 -75.2636 216° Southwest 448 516 40,000  Level Washington Center
12:45PM 38.1917 -75.3514 214° Southwest 443 510 40,000  Level Washington Center
12:46PM 38.0897 -75.4414 215° Southwest 449 517 40,000  Level Washington Center
12:47PM 37.9875 -75.5258 213° Southwest 449 517 40,000  Level Washington Center
12:48PM 37.8833 -75.6103 213° Southwest 449 517 40,000  Level Washington Center
12:49PM 37.7769 -75.6917 211° Southwest 449 517 40,000  Level Washington Center
12:50PM 37.6703 -75.7756 212° Southwest 449 517 40,000  Level Washington Center
12:51PM 37.5744 -75.8511 212° Southwest 454 522 40,000  Level Washington Center
12:52PM 37.4678 -75.9347 212° Southwest 454 522 40,000  Level Washington Center
12:53PM 37.3631 -76.0178 212° Southwest 454 522 40,000  Level Washington Center
12:54PM 37.2564 -76.1006 212° Southwest 454 522 40,000  Level Washington Center
12:55PM 37.1436 -76.1781 209° Southwest 460 529 40,000  Level Washington Center
12:56PM 37.0386 -76.2631 213° Southwest 460 529 40,000  Level Washington Center
12:57PM 36.9297 -76.3453 211° Southwest 460 529 40,000  Level Washington Center
12:58PM 36.8228 -76.4275 212° Southwest 455 524 40,000  Level Washington Center
12:59PM 36.7139 -76.5092 211° Southwest 455 524 40,000  Level Washington Center
01:00PM 36.5983 -76.5828 207° Southwest 455 524 40,000  Level Washington Center
01:01PM 36.4831 -76.6486 205° Southwest 460 529 40,000  Level Washington Center
01:02PM 36.3656 -76.7167 205° Southwest 460 529 40,000  Level Washington Center
01:03PM 36.2503 -76.7844 205° Southwest 465 535 40,000  Level Washington Center
01:04PM 36.1328 -76.8547 206° Southwest 465 535 40,000  Level Washington Center
01:05PM 36.0131 -76.9194 204° Southwest 465 535 40,000  Level Washington Center
01:06PM 35.8956 -76.9894 206° Southwest 465 535 40,000  Level Washington Center
01:07PM 35.7717 -77.0461 200° South 465 535 40,000  Level Washington Center
01:08PM 35.6417 -77.0947 197° South 472 543 40,000  Level Washington Center
01:10PM 35.5056 -77.1458 197° South 472 543 40,000  Level Washington Center
01:10PM 35.3775 -77.1969 198° South 477 549 40,000  Level Washington Center
01:11PM 35.2494 -77.2453 197° South 483 556 40,000  Level Washington Center
01:12PM 35.1236 -77.2936 197° South 483 556 40,000  Level Washington Center
01:13PM 34.9958 -77.3414 197° South 483 556 40,000  Level Washington Center
01:14PM 34.8656 -77.3919 198° South 488 562 40,000  Level Washington Center
01:15PM 34.7544 -77.4375 199° South 483 556 40,000  Level Washington Center
01:16PM 34.6264 -77.4875 198° South 483 556 40,000  Level Washington Center
01:17PM 34.4983 -77.5325 196° South 483 556 40,000  Level Washington Center
01:18PM 34.3703 -77.5822 198° South 483 556 40,000  Level Washington Center
01:20PM 34.1431 -77.6614 196° South 471 542 40,000  Level Jacksonville Center
01:21PM 34.0136 -77.7092 197° South 481 554 40,000  Level Jacksonville Center
01:22PM 33.8842 -77.7569 197° South 487 560 40,000  Level Jacksonville Center
01:23PM 33.7547 -77.8069 198° South 487 560 40,000  Level Jacksonville Center
01:24PM 33.6128 -77.8575 197° South 487 560 40,000  Level Jacksonville Center
01:25PM 33.4856 -77.9072 198° South 487 560 40,000  Level Jacksonville Center
01:26PM 33.3558 -77.9542 197° South 487 560 40,000  Level Jacksonville Center
01:27PM 33.2283 -78.0011 197° South 487 560 40,000  Level Jacksonville Center
01:28PM 33.0967 -78.0478 197° South 487 560 40,000  Level Jacksonville Center
01:29PM 32.9667 -78.0919 196° South 487 560 40,000  Level Jacksonville Center
01:30PM 32.8392 -78.1408 198° South 487 560 40,000  Level Jacksonville Center
01:31PM 32.7094 -78.1872 197° South 487 560 40,000  Level Jacksonville Center
01:32PM 32.5797 -78.2333 197° South 487 560 40,000  Level Jacksonville Center
01:33PM 32.4497 -78.2769 196° South 487 560 40,000  Level Jacksonville Center
01:34PM 32.3222 -78.3300 199° South 487 560 40,000  Level Jacksonville Center
01:35PM 32.1906 -78.3783 197° South 492 566 40,000  Level Jacksonville Center
01:36PM 32.0628 -78.4239 197° South 492 566 40,000  Level Jacksonville Center
01:37PM 31.9286 -78.4719 197° South 493 567 40,000  Level Jacksonville Center
01:38PM 31.7986 -78.5150 196° South 493 567 40,000  Level Jacksonville Center
01:39PM 31.6647 -78.5628 197° South 493 567 40,000  Level Jacksonville Center
01:40PM 31.5367 -78.6075 197° South 493 567 40,000  Level Jacksonville Center
01:41PM 31.4047 -78.6550 197° South 491 565 40,000  Level Jacksonville Center
01:42PM 31.2706 -78.7050 198° South 498 573 40,000  Level Jacksonville Center
01:43PM 31.1406 -78.7472 196° South 498 573 40,000  Level Jacksonville Center
01:45PM 30.8750 -78.8386 196° South 491 565 40,000  Level Miami Center
01:46PM 30.7411 -78.8844 196° South 501 577 40,000  Level Miami Center
01:47PM 30.6094 -78.9206 193° South 496 571 40,000  Level Miami Center
01:48PM 30.4756 -78.9564 193° South 496 571 40,000  Level Miami Center
01:49PM 30.3394 -78.9944 194° South 496 571 40,000  Level Miami Center
01:50PM 30.2014 -79.0278 192° South 496 571 40,000  Level Miami Center
01:51PM 30.0631 -79.0633 193° South 501 577 40,000  Level Miami Center
01:52PM 29.9167 -79.1081 195° South 501 577 40,000  Level Miami Center
01:53PM 29.7806 -79.1436 193° South 501 577 40,000  Level Miami Center
01:54PM 29.6506 -79.1839 195° South 503 579 40,000  Level Miami Center
01:55PM 29.5122 -79.2167 192° South 498 573 40,000  Level Miami Center
01:56PM 29.3742 -79.2469 191° South 504 580 40,000  Level Miami Center
01:57PM 29.2400 -79.2844 194° South 504 580 40,000 -360 Level Miami Center
01:58PM 29.1100 -79.3197 193° South 499 574 39,300 -780 Descending Miami Center
01:59PM 28.9739 -79.3544 193° South 494 568 38,500 -1,140 Descending Miami Center
02:00PM 28.8356 -79.3869 192° South 494 568 37,100 -1,440 Descending Miami Center
02:01PM 28.6994 -79.4217 193° South 500 575 35,700 -1,440 Descending Miami Center
02:02PM 28.5567 -79.4586 193° South 507 583 34,300 -1,440 Descending Miami Center
02:03PM 28.4183 -79.4933 192° South 513 590 32,900 -1,440 Descending Miami Center
02:04PM 28.2906 -79.5281 193° South 507 583 31,500 -1,440 Descending Miami Center
02:05PM 28.1606 -79.5578 191° South 487 560 30,100 -1,440 Descending Miami Center
02:06PM 28.0325 -79.5925 193° South 481 554 28,700 -1,440 Descending Miami Center
02:07PM 27.9044 -79.6247 193° South 476 548 27,300 -1,440 Descending Miami Center
02:08PM 27.7872 -79.6406 187° South 467 537 25,900 -1,380 Descending Miami Center
02:09PM 27.6578 -79.6444 182° South 472 543 24,600 -1,500 Descending Miami Center
02:10PM 27.5156 -79.6503 182° South 472 543 23,000 -1,500 Descending Miami Center
02:11PM 27.3861 -79.6567 183° South 472 543 21,600 -1,380 Descending Miami Center
02:12PM 27.2567 -79.6606 182° South 472 543 20,300 -1,380 Descending Miami Center
02:13PM 27.1417 -79.6669 183° South 467 537 18,900 -1,560 Descending Miami Center
02:14PM 27.0119 -79.6708 182° South 467 537 17,200 -1,800 Descending Miami Center
02:15PM 26.8761 -79.6769 182° South 460 529 15,300 -1,980 Descending Miami Center
02:16PM 26.7653 -79.6836 183° South 428 493 13,500 -1,800 Descending Miami Center
02:16PM 26.7675 -79.6836 360° North 444 511 13,500 -2,040 Level Miami Center
02:17PM 26.6747 -79.7186 199° South 360 414 11,600 -2,220 Descending Miami Center
02:17PM 26.6600 -79.7253 202° Southwest 388 447 11,300 -1,980 Descending Miami Center
02:18PM 26.5861 -79.7628 204° Southwest 336 387 9,600 -1,920 Descending Miami Center
02:18PM 26.5819 -79.7650 205° Southwest 358 412 9,400 -1,440 Descending Miami Center
02:19PM 26.4956 -79.8047 202° Southwest 291 335 8,000 -1,440 Descending Miami Center
02:19PM 26.4956 -79.8047 202° Southwest 325 374 8,000  Level Miami Center
02:20PM 26.4258 -79.8403 205° Southwest 272 313 8,000  Level Miami Center
02:20PM 26.4344 -79.8333 36° Northeast 285 328 8,000  Level Miami Center
02:21PM 26.3583 -79.8803 209° Southwest 280 322 8,000  Level Miami Center
02:21PM 26.3497 -79.8892 223° Southwest 283 326 8,000 -720 Level Miami Center
02:22PM 26.3050 -79.9322 221° Southwest 286 329 7,300 -900 Descending Miami Center
02:22PM 26.2964 -79.9411 223° Southwest 288 331 7,200 -1,380 Descending Miami Center
02:23PM 26.2389 -79.9931 219° Southwest 283 326 6,000 -1,260 Descending Miami Center
02:23PM 26.2475 -79.9886 25° Northeast 291 335 6,000  Level Miami Center
02:24PM 26.1961 -80.0381 221° Southwest 277 319 6,000 -60 Level Miami Center
02:25PM 26.1633 -80.1044 241° Southwest 253 291 5,900 -240 Descending Miami Center
02:25PM 26.1567 -80.1203 245° Southwest 250 288 5,800 -780 Descending Miami Center
02:26PM 26.1447 -80.1872 259° West 202 232 5,100 -960 Descending Miami Center
02:27PM 26.1453 -80.2542 271° West 233 268 4,000 -840 Descending Miami Center
02:28PM 26.1397 -80.3211 265° West 226 260 3,500 -1,080 Descending Miami Center
02:29PM 26.0878 -80.3106 170° South 241 277 2,000 -900 Descending Miami Center
02:30PM 26.0700 -80.2567 110° East 167 192 1,800 -540 Descending Miami Center
02:31PM 26.0756 -80.2036 83° East 129 148 900 -840 Descending Miami Center
02:33PM 26.0667 -80.1500 103° East  Level FlightAware Approximate
02:40PM 26.0726 -80.1527 103° East  Level Estimated
02:41PM 26.0667 -80.1500 103° East  Level FlightAware Approximate